This is the latest recevied weather packets stored in our database for station/object W2JGA. If no packets are shown the sender has not sent any weather packets the latest 10 day(s).
| Time | Temp. | Humidity | Pressure | Rain* | Wind** | Luminosity | Snow |
|---|---|---|---|---|---|---|---|
| 1778088171 | 21.11° C | 41% | 1019 hPa | 0 mm | - | 744 W/m² | - |
| 1778087868 | 21.11° C | 43% | 1019 hPa | 0 mm | - | 730 W/m² | - |
| 1778087565 | 21.67° C | 41% | 1018.7 hPa | 0 mm | - | 734 W/m² | - |
| 1778087263 | 21.11° C | 42% | 1019 hPa | 0 mm | - | 704 W/m² | - |
| 1778086959 | 21.67° C | 44% | 1019 hPa | 0 mm | - | 702 W/m² | - |
| 1778086658 | 21.67° C | 43% | 1019 hPa | 0 mm | - | 680 W/m² | - |
| 1778086355 | 21.11° C | 46% | 1019 hPa | 0 mm | - | 670 W/m² | - |
| 1778086052 | 21.11° C | 44% | 1019 hPa | 0 mm | - | 615 W/m² | - |
| 1778085749 | 20.56° C | 45% | 1019 hPa | 0 mm | - | 589 W/m² | - |
| 1778085445 | 20.56° C | 45% | 1019 hPa | 0 mm | - | 557 W/m² | - |
| 1778085135 | 20° C | 48% | 1019 hPa | 0 mm | - | 540 W/m² | - |
| 1778084832 | 19.44° C | 50% | 1019 hPa | 0 mm | - | 553 W/m² | - |
| 1778084528 | 19.44° C | 50% | 1019 hPa | 0 mm | - | 540 W/m² | - |
| 1778084225 | 19.44° C | 49% | 1018.7 hPa | 0 mm | - | 511 W/m² | - |
| 1778083922 | 18.89° C | 51% | 1019 hPa | 0 mm | - | 489 W/m² | - |
| 1778083620 | 18.89° C | 52% | 1019 hPa | 0 mm | - | 481 W/m² | - |
| 1778083316 | 18.89° C | 52% | 1019 hPa | 0 mm | - | 440 W/m² | - |
| 1778083015 | 18.33° C | 53% | 1019 hPa | 0 mm | - | 417 W/m² | - |
| 1778082713 | 18.89° C | 52% | 1019 hPa | 0 mm | - | 402 W/m² | - |
| 1778081580 | 17.22° C | 56% | 1019 hPa | 0 mm | - | 161 W/m² | - |
| 1778081276 | 17.78° C | 56% | 1018.7 hPa | 0 mm | - | 324 W/m² | - |
| 1778080974 | 17.78° C | 56% | 1019 hPa | 0 mm | - | 60 W/m² | - |
| 1778080673 | 17.78° C | 56% | 1019 hPa | 0 mm | - | 50 W/m² | - |
| 1778080369 | 17.22° C | 57% | 1019 hPa | 0 mm | - | 59 W/m² | - |
| 1778080065 | 16.67° C | 58% | 1019 hPa | 0 mm | - | 53 W/m² | - |
* Rain latest hour (hover to see other rain measurements)
** Current wind speed in m/s (hover to see current wind gust speed)